sensor_id;sensor_type;location;lat;lon;timestamp;pressure;altitude;pressure_sealevel;temperature;humidity
72226;BME280;60130;52.250;5.048;2022-08-21T00:00:00;1018.1;;;16.9;76.9
72226;BME280;60130;52.250;5.048;2022-08-21T00:05:00;1018.1;;;17.0;77.0
72226;BME280;60130;52.250;5.048;2022-08-21T00:10:00;1018.1;;;16.9;77.6
72226;BME280;60130;52.250;5.048;2022-08-21T00:15:00;1018.0;;;16.9;77.9
72226;BME280;60130;52.250;5.048;2022-08-21T00:20:00;1018.0;;;17.0;78.2
72226;BME280;60130;52.250;5.048;2022-08-21T00:25:00;1017.9;;;16.9;78.5
72226;BME280;60130;52.250;5.048;2022-08-21T00:30:00;1017.9;;;16.9;78.9
72226;BME280;60130;52.250;5.048;2022-08-21T00:35:00;1017.9;;;16.9;79.1
72226;BME280;60130;52.250;5.048;2022-08-21T00:40:00;1017.8;;;16.8;79.8
72226;BME280;60130;52.250;5.048;2022-08-21T00:45:00;1017.8;;;16.8;80.1
72226;BME280;60130;52.250;5.048;2022-08-21T00:50:00;1017.8;;;16.9;80.0
72226;BME280;60130;52.250;5.048;2022-08-21T00:55:01;1017.8;;;16.9;79.8
72226;BME280;60130;52.250;5.048;2022-08-21T01:00:04;1017.8;;;16.9;79.8
72226;BME280;60130;52.250;5.048;2022-08-21T01:05:00;1017.8;;;16.9;80.2
72226;BME280;60130;52.250;5.048;2022-08-21T01:10:00;1017.8;;;16.9;80.2
72226;BME280;60130;52.250;5.048;2022-08-21T01:15:01;1017.8;;;16.9;80.1
72226;BME280;60130;52.250;5.048;2022-08-21T01:20:03;1017.9;;;16.8;80.2
72226;BME280;60130;52.250;5.048;2022-08-21T01:25:02;1017.9;;;16.7;80.5
72226;BME280;60130;52.250;5.048;2022-08-21T01:30:07;1017.9;;;16.7;81.2
72226;BME280;60130;52.250;5.048;2022-08-21T01:35:00;1017.9;;;16.6;81.3
72226;BME280;60130;52.250;5.048;2022-08-21T01:40:00;1017.9;;;16.6;81.6
72226;BME280;60130;52.250;5.048;2022-08-21T01:45:00;1017.8;;;16.6;81.7
72226;BME280;60130;52.250;5.048;2022-08-21T01:50:00;1017.8;;;16.6;81.7
72226;BME280;60130;52.250;5.048;2022-08-21T01:55:00;1017.8;;;16.6;81.8
72226;BME280;60130;52.250;5.048;2022-08-21T02:00:00;1017.8;;;16.6;81.7
72226;BME280;60130;52.250;5.048;2022-08-21T02:05:00;1017.7;;;16.5;81.8
72226;BME280;60130;52.250;5.048;2022-08-21T02:10:00;1017.7;;;16.5;82.5
72226;BME280;60130;52.250;5.048;2022-08-21T02:15:00;1017.6;;;16.5;82.7
72226;BME280;60130;52.250;5.048;2022-08-21T02:20:00;1017.6;;;16.4;82.8
72226;BME280;60130;52.250;5.048;2022-08-21T02:25:00;1017.6;;;16.2;83.2
72226;BME280;60130;52.250;5.048;2022-08-21T02:30:00;1017.6;;;16.2;83.6
72226;BME280;60130;52.250;5.048;2022-08-21T02:35:00;1017.6;;;16.0;84.0
72226;BME280;60130;52.250;5.048;2022-08-21T02:40:00;1017.6;;;16.1;84.2
72226;BME280;60130;52.250;5.048;2022-08-21T02:45:00;1017.5;;;16.2;83.9
72226;BME280;60130;52.250;5.048;2022-08-21T02:50:00;1017.5;;;16.3;83.3
72226;BME280;60130;52.250;5.048;2022-08-21T02:55:00;1017.5;;;16.2;83.4
72226;BME280;60130;52.250;5.048;2022-08-21T03:00:00;1017.5;;;16.2;83.7
72226;BME280;60130;52.250;5.048;2022-08-21T03:05:00;1017.5;;;16.0;83.8
72226;BME280;60130;52.250;5.048;2022-08-21T03:10:00;1017.4;;;15.9;84.9
72226;BME280;60130;52.250;5.048;2022-08-21T03:15:00;1017.4;;;15.9;84.6
72226;BME280;60130;52.250;5.048;2022-08-21T03:20:00;1017.3;;;15.9;84.6
72226;BME280;60130;52.250;5.048;2022-08-21T03:25:00;1017.3;;;15.8;84.6
72226;BME280;60130;52.250;5.048;2022-08-21T03:30:01;1017.3;;;15.7;84.8
72226;BME280;60130;52.250;5.048;2022-08-21T03:35:00;1017.2;;;15.7;84.9
72226;BME280;60130;52.250;5.048;2022-08-21T03:40:00;1017.3;;;15.7;85.0
72226;BME280;60130;52.250;5.048;2022-08-21T03:45:01;1017.2;;;15.7;84.8
72226;BME280;60130;52.250;5.048;2022-08-21T03:50:00;1017.2;;;15.7;84.7
72226;BME280;60130;52.250;5.048;2022-08-21T03:55:00;1017.1;;;15.6;84.7
72226;BME280;60130;52.250;5.048;2022-08-21T04:00:00;1017.1;;;15.6;84.8
72226;BME280;60130;52.250;5.048;2022-08-21T04:05:00;1017.2;;;15.6;84.8
72226;BME280;60130;52.250;5.048;2022-08-21T04:10:00;1017.2;;;15.7;84.6
72226;BME280;60130;52.250;5.048;2022-08-21T04:15:00;1017.2;;;15.8;84.4
72226;BME280;60130;52.250;5.048;2022-08-21T04:20:00;1017.3;;;15.9;84.1
72226;BME280;60130;52.250;5.048;2022-08-21T04:25:00;1017.3;;;15.8;84.4
72226;BME280;60130;52.250;5.048;2022-08-21T04:30:00;1017.3;;;15.7;84.4
72226;BME280;60130;52.250;5.048;2022-08-21T04:35:01;1017.3;;;15.7;84.3
72226;BME280;60130;52.250;5.048;2022-08-21T04:40:00;1017.4;;;15.8;83.9
72226;BME280;60130;52.250;5.048;2022-08-21T04:45:00;1017.3;;;15.8;84.1
72226;BME280;60130;52.250;5.048;2022-08-21T04:50:00;1017.4;;;15.9;84.0
72226;BME280;60130;52.250;5.048;2022-08-21T04:55:00;1017.5;;;15.8;84.5
72226;BME280;60130;52.250;5.048;2022-08-21T05:00:00;1017.5;;;15.8;84.4
72226;BME280;60130;52.250;5.048;2022-08-21T05:05:00;1017.4;;;16.0;84.1
72226;BME280;60130;52.250;5.048;2022-08-21T05:10:00;1017.4;;;16.1;83.8
72226;BME280;60130;52.250;5.048;2022-08-21T05:15:00;1017.4;;;16.2;83.7
72226;BME280;60130;52.250;5.048;2022-08-21T05:20:00;1017.4;;;16.2;83.8
72226;BME280;60130;52.250;5.048;2022-08-21T05:25:00;1017.4;;;16.4;83.2
72226;BME280;60130;52.250;5.048;2022-08-21T05:30:00;1017.5;;;16.5;83.3
72226;BME280;60130;52.250;5.048;2022-08-21T05:35:00;1017.5;;;16.5;83.1
72226;BME280;60130;52.250;5.048;2022-08-21T05:40:01;1017.6;;;16.6;82.9
72226;BME280;60130;52.250;5.048;2022-08-21T05:45:00;1017.5;;;16.9;82.4
72226;BME280;60130;52.250;5.048;2022-08-21T05:50:00;1017.6;;;16.9;82.4
72226;BME280;60130;52.250;5.048;2022-08-21T05:55:00;1017.6;;;17.0;82.5
72226;BME280;60130;52.250;5.048;2022-08-21T06:00:00;1017.6;;;17.1;82.5
72226;BME280;60130;52.250;5.048;2022-08-21T06:05:00;1017.6;;;17.2;82.2
72226;BME280;60130;52.250;5.048;2022-08-21T06:10:00;1017.5;;;17.3;82.2
72226;BME280;60130;52.250;5.048;2022-08-21T06:15:00;1017.5;;;17.6;81.4
72226;BME280;60130;52.250;5.048;2022-08-21T06:20:00;1017.6;;;17.8;80.7
72226;BME280;60130;52.250;5.048;2022-08-21T06:25:00;1017.5;;;18.6;78.2
72226;BME280;60130;52.250;5.048;2022-08-21T06:30:00;1017.5;;;19.2;76.9
72226;BME280;60130;52.250;5.048;2022-08-21T06:35:00;1017.6;;;19.9;74.6
72226;BME280;60130;52.250;5.048;2022-08-21T06:40:00;1017.6;;;20.6;72.1
72226;BME280;60130;52.250;5.048;2022-08-21T06:45:00;1017.5;;;21.0;70.6
72226;BME280;60130;52.250;5.048;2022-08-21T06:50:00;1017.5;;;21.7;70.3
72226;BME280;60130;52.250;5.048;2022-08-21T06:55:00;1017.5;;;22.3;67.3
72226;BME280;60130;52.250;5.048;2022-08-21T07:00:00;1017.5;;;22.5;66.7
72226;BME280;60130;52.250;5.048;2022-08-21T07:05:00;1017.6;;;22.8;66.2
72226;BME280;60130;52.250;5.048;2022-08-21T07:10:00;1017.6;;;23.4;64.3
72226;BME280;60130;52.250;5.048;2022-08-21T07:15:00;1017.6;;;23.4;64.5
72226;BME280;60130;52.250;5.048;2022-08-21T07:20:00;1017.6;;;23.9;63.9
72226;BME280;60130;52.250;5.048;2022-08-21T07:25:00;1017.6;;;23.9;63.3
72226;BME280;60130;52.250;5.048;2022-08-21T07:30:00;1017.5;;;23.5;64.6
72226;BME280;60130;52.250;5.048;2022-08-21T07:35:00;1017.5;;;24.0;63.8
72226;BME280;60130;52.250;5.048;2022-08-21T07:40:00;1017.6;;;24.4;62.2
72226;BME280;60130;52.250;5.048;2022-08-21T07:45:00;1017.6;;;24.3;64.0
72226;BME280;60130;52.250;5.048;2022-08-21T07:50:00;1017.6;;;23.3;66.6
72226;BME280;60130;52.250;5.048;2022-08-21T07:55:00;1017.5;;;22.3;70.0
72226;BME280;60130;52.250;5.048;2022-08-21T08:00:00;1017.5;;;22.1;70.9
72226;BME280;60130;52.250;5.048;2022-08-21T08:05:00;1017.5;;;21.9;71.5
72226;BME280;60130;52.250;5.048;2022-08-21T08:10:00;1017.5;;;21.4;72.5
72226;BME280;60130;52.250;5.048;2022-08-21T08:15:00;1017.6;;;21.5;73.2
72226;BME280;60130;52.250;5.048;2022-08-21T08:20:00;1017.6;;;21.6;72.5
72226;BME280;60130;52.250;5.048;2022-08-21T08:25:00;1017.5;;;21.8;72.5
72226;BME280;60130;52.250;5.048;2022-08-21T08:30:00;1017.5;;;22.3;71.3
72226;BME280;60130;52.250;5.048;2022-08-21T08:35:00;1017.5;;;22.4;70.8
72226;BME280;60130;52.250;5.048;2022-08-21T08:40:00;1017.4;;;22.4;70.8
72226;BME280;60130;52.250;5.048;2022-08-21T08:45:03;1017.3;;;22.5;70.4
72226;BME280;60130;52.250;5.048;2022-08-21T08:50:03;1017.4;;;22.6;70.3
72226;BME280;60130;52.250;5.048;2022-08-21T08:55:04;1017.3;;;22.8;69.0
72226;BME280;60130;52.250;5.048;2022-08-21T09:00:04;1017.3;;;23.3;68.5
72226;BME280;60130;52.250;5.048;2022-08-21T09:05:00;1017.3;;;23.3;67.3
72226;BME280;60130;52.250;5.048;2022-08-21T09:10:10;1017.3;;;23.1;67.3
72226;BME280;60130;52.250;5.048;2022-08-21T09:15:11;1017.3;;;23.2;67.1
72226;BME280;60130;52.250;5.048;2022-08-21T09:20:11;1017.3;;;23.0;67.3
72226;BME280;60130;52.250;5.048;2022-08-21T09:25:07;1017.3;;;23.4;66.9
72226;BME280;60130;52.250;5.048;2022-08-21T09:30:00;1017.3;;;23.3;65.8
72226;BME280;60130;52.250;5.048;2022-08-21T09:35:06;1017.4;;;23.2;66.7
72226;BME280;60130;52.250;5.048;2022-08-21T09:40:01;1017.3;;;23.3;65.9
72226;BME280;60130;52.250;5.048;2022-08-21T09:45:09;1017.3;;;23.6;64.5
72226;BME280;60130;52.250;5.048;2022-08-21T09:50:08;1017.3;;;23.3;64.5
72226;BME280;60130;52.250;5.048;2022-08-21T09:55:00;1017.2;;;23.6;64.2
72226;BME280;60130;52.250;5.048;2022-08-21T10:00:09;1017.3;;;23.6;64.2
72226;BME280;60130;52.250;5.048;2022-08-21T10:05:01;1017.2;;;23.6;65.2
72226;BME280;60130;52.250;5.048;2022-08-21T10:10:04;1017.3;;;23.2;65.4
72226;BME280;60130;52.250;5.048;2022-08-21T10:15:09;1017.3;;;22.5;68.2
72226;BME280;60130;52.250;5.048;2022-08-21T10:20:04;1017.4;;;22.1;69.1
72226;BME280;60130;52.250;5.048;2022-08-21T10:25:06;1017.3;;;22.1;67.7
72226;BME280;60130;52.250;5.048;2022-08-21T10:30:04;1017.3;;;22.6;66.6
72226;BME280;60130;52.250;5.048;2022-08-21T10:35:08;1017.3;;;23.0;63.4
72226;BME280;60130;52.250;5.048;2022-08-21T10:40:07;1017.2;;;23.9;60.0
72226;BME280;60130;52.250;5.048;2022-08-21T10:45:10;1017.2;;;24.0;58.0
72226;BME280;60130;52.250;5.048;2022-08-21T10:50:07;1017.1;;;24.4;58.0
72226;BME280;60130;52.250;5.048;2022-08-21T10:55:04;1017.1;;;24.8;57.7
72226;BME280;60130;52.250;5.048;2022-08-21T11:00:06;1017.0;;;25.4;57.2
72226;BME280;60130;52.250;5.048;2022-08-21T11:05:04;1017.0;;;25.5;55.7
72226;BME280;60130;52.250;5.048;2022-08-21T11:10:04;1017.1;;;25.0;55.4
72226;BME280;60130;52.250;5.048;2022-08-21T11:15:03;1017.1;;;24.3;55.8
72226;BME280;60130;52.250;5.048;2022-08-21T11:20:08;1017.0;;;24.7;55.9
72226;BME280;60130;52.250;5.048;2022-08-21T11:25:03;1017.1;;;25.0;54.1
72226;BME280;60130;52.250;5.048;2022-08-21T11:30:00;1017.1;;;24.7;55.2
72226;BME280;60130;52.250;5.048;2022-08-21T11:35:04;1017.1;;;24.9;53.9
72226;BME280;60130;52.250;5.048;2022-08-21T11:40:05;1017.1;;;25.1;55.4
72226;BME280;60130;52.250;5.048;2022-08-21T11:45:08;1017.2;;;25.6;53.2
72226;BME280;60130;52.250;5.048;2022-08-21T11:50:08;1017.2;;;25.7;52.1
72226;BME280;60130;52.250;5.048;2022-08-21T11:55:05;1017.2;;;25.8;52.6
72226;BME280;60130;52.250;5.048;2022-08-21T12:00:03;1017.2;;;25.9;53.1
72226;BME280;60130;52.250;5.048;2022-08-21T12:05:02;1017.2;;;25.6;52.9
72226;BME280;60130;52.250;5.048;2022-08-21T12:10:01;1017.2;;;26.0;52.2
72226;BME280;60130;52.250;5.048;2022-08-21T12:15:16;1017.2;;;25.6;52.8
72226;BME280;60130;52.250;5.048;2022-08-21T12:20:16;1017.2;;;24.9;53.9
72226;BME280;60130;52.250;5.048;2022-08-21T12:25:05;1017.2;;;25.2;54.6
72226;BME280;60130;52.250;5.048;2022-08-21T12:30:03;1017.2;;;25.5;54.1
72226;BME280;60130;52.250;5.048;2022-08-21T12:35:05;1017.3;;;25.8;52.4
72226;BME280;60130;52.250;5.048;2022-08-21T12:40:00;1017.3;;;25.0;53.4
72226;BME280;60130;52.250;5.048;2022-08-21T12:45:03;1017.3;;;25.2;53.9
72226;BME280;60130;52.250;5.048;2022-08-21T12:50:03;1017.3;;;25.6;53.0
72226;BME280;60130;52.250;5.048;2022-08-21T12:55:00;1017.4;;;26.1;52.7
72226;BME280;60130;52.250;5.048;2022-08-21T13:00:04;1017.4;;;26.4;50.7
72226;BME280;60130;52.250;5.048;2022-08-21T13:05:03;1017.3;;;26.1;48.9
72226;BME280;60130;52.250;5.048;2022-08-21T13:10:03;1017.3;;;25.7;52.1
72226;BME280;60130;52.250;5.048;2022-08-21T13:15:04;1017.4;;;25.3;53.8
72226;BME280;60130;52.250;5.048;2022-08-21T13:20:04;1017.4;;;24.9;54.8
72226;BME280;60130;52.250;5.048;2022-08-21T13:25:00;1017.4;;;25.1;53.4
72226;BME280;60130;52.250;5.048;2022-08-21T13:30:04;1017.4;;;25.3;53.0
72226;BME280;60130;52.250;5.048;2022-08-21T13:35:09;1017.3;;;25.4;52.4
72226;BME280;60130;52.250;5.048;2022-08-21T13:40:00;1017.3;;;24.9;54.2
72226;BME280;60130;52.250;5.048;2022-08-21T13:45:00;1017.4;;;24.6;54.2
72226;BME280;60130;52.250;5.048;2022-08-21T13:50:00;1017.4;;;24.8;54.5
72226;BME280;60130;52.250;5.048;2022-08-21T13:55:09;1017.3;;;25.1;52.8
72226;BME280;60130;52.250;5.048;2022-08-21T14:00:11;1017.3;;;24.7;53.9
72226;BME280;60130;52.250;5.048;2022-08-21T14:05:01;1017.3;;;24.8;53.9
72226;BME280;60130;52.250;5.048;2022-08-21T14:10:00;1017.3;;;25.2;53.2
72226;BME280;60130;52.250;5.048;2022-08-21T14:15:03;1017.4;;;25.6;52.5
72226;BME280;60130;52.250;5.048;2022-08-21T14:20:00;1017.4;;;24.9;53.3
72226;BME280;60130;52.250;5.048;2022-08-21T14:25:02;1017.4;;;24.7;53.1
72226;BME280;60130;52.250;5.048;2022-08-21T14:30:08;1017.3;;;24.9;53.9
72226;BME280;60130;52.250;5.048;2022-08-21T14:35:00;1017.3;;;24.3;54.1
72226;BME280;60130;52.250;5.048;2022-08-21T14:40:00;1017.3;;;24.4;54.3
72226;BME280;60130;52.250;5.048;2022-08-21T14:45:03;1017.3;;;24.3;54.8
72226;BME280;60130;52.250;5.048;2022-08-21T14:50:00;1017.3;;;24.3;55.0
72226;BME280;60130;52.250;5.048;2022-08-21T14:55:00;1017.4;;;24.6;55.3
72226;BME280;60130;52.250;5.048;2022-08-21T15:00:00;1017.4;;;24.9;53.9
72226;BME280;60130;52.250;5.048;2022-08-21T15:05:00;1017.4;;;24.8;54.2
72226;BME280;60130;52.250;5.048;2022-08-21T15:10:00;1017.4;;;24.3;55.9
72226;BME280;60130;52.250;5.048;2022-08-21T15:15:00;1017.5;;;24.2;55.5
72226;BME280;60130;52.250;5.048;2022-08-21T15:20:00;1017.5;;;24.0;56.9
72226;BME280;60130;52.250;5.048;2022-08-21T15:25:00;1017.5;;;23.9;56.8
72226;BME280;60130;52.250;5.048;2022-08-21T15:30:01;1017.5;;;23.9;57.4
72226;BME280;60130;52.250;5.048;2022-08-21T15:35:00;1017.6;;;24.1;57.5
72226;BME280;60130;52.250;5.048;2022-08-21T15:40:00;1017.6;;;23.8;58.0
72226;BME280;60130;52.250;5.048;2022-08-21T15:45:01;1017.6;;;23.8;58.0
72226;BME280;60130;52.250;5.048;2022-08-21T15:50:00;1017.7;;;24.0;57.4
72226;BME280;60130;52.250;5.048;2022-08-21T15:55:00;1017.6;;;23.7;57.1
72226;BME280;60130;52.250;5.048;2022-08-21T16:00:05;1017.7;;;23.8;57.0
72226;BME280;60130;52.250;5.048;2022-08-21T16:05:00;1017.7;;;23.9;57.2
72226;BME280;60130;52.250;5.048;2022-08-21T16:10:00;1017.7;;;24.1;56.8
72226;BME280;60130;52.250;5.048;2022-08-21T16:15:01;1017.7;;;24.1;56.1
72226;BME280;60130;52.250;5.048;2022-08-21T16:20:02;1017.7;;;24.0;56.6
72226;BME280;60130;52.250;5.048;2022-08-21T16:25:00;1017.7;;;24.1;56.7
72226;BME280;60130;52.250;5.048;2022-08-21T16:30:00;1017.7;;;24.4;55.2
72226;BME280;60130;52.250;5.048;2022-08-21T16:35:01;1017.7;;;24.6;55.7
72226;BME280;60130;52.250;5.048;2022-08-21T16:40:00;1017.6;;;24.2;55.7
72226;BME280;60130;52.250;5.048;2022-08-21T16:45:00;1017.6;;;24.0;56.1
72226;BME280;60130;52.250;5.048;2022-08-21T16:50:00;1017.6;;;23.9;56.2
72226;BME280;60130;52.250;5.048;2022-08-21T16:55:00;1017.6;;;24.2;55.0
72226;BME280;60130;52.250;5.048;2022-08-21T17:00:00;1017.6;;;23.8;54.5
72226;BME280;60130;52.250;5.048;2022-08-21T17:05:00;1017.6;;;23.5;57.0
72226;BME280;60130;52.250;5.048;2022-08-21T17:10:00;1017.7;;;23.4;58.6
72226;BME280;60130;52.250;5.048;2022-08-21T17:15:03;1017.6;;;23.1;58.7
72226;BME280;60130;52.250;5.048;2022-08-21T17:20:00;1017.5;;;23.0;58.9
72226;BME280;60130;52.250;5.048;2022-08-21T17:25:00;1017.5;;;23.0;59.3
72226;BME280;60130;52.250;5.048;2022-08-21T17:30:00;1017.6;;;22.9;59.3
72226;BME280;60130;52.250;5.048;2022-08-21T17:35:00;1017.5;;;22.6;59.5
72226;BME280;60130;52.250;5.048;2022-08-21T17:40:00;1017.5;;;22.6;59.8
72226;BME280;60130;52.250;5.048;2022-08-21T17:45:00;1017.6;;;22.6;59.4
72226;BME280;60130;52.250;5.048;2022-08-21T17:50:00;1017.6;;;22.6;59.3
72226;BME280;60130;52.250;5.048;2022-08-21T17:55:00;1017.6;;;22.5;59.5
72226;BME280;60130;52.250;5.048;2022-08-21T18:00:00;1017.6;;;22.4;60.7
72226;BME280;60130;52.250;5.048;2022-08-21T18:05:00;1017.6;;;22.4;60.8
72226;BME280;60130;52.250;5.048;2022-08-21T18:10:02;1017.6;;;22.2;60.1
72226;BME280;60130;52.250;5.048;2022-08-21T18:15:00;1017.6;;;22.0;61.7
72226;BME280;60130;52.250;5.048;2022-08-21T18:20:00;1017.6;;;21.8;62.0
72226;BME280;60130;52.250;5.048;2022-08-21T18:25:00;1017.7;;;21.7;62.2
72226;BME280;60130;52.250;5.048;2022-08-21T18:30:00;1017.6;;;21.6;63.0
72226;BME280;60130;52.250;5.048;2022-08-21T18:35:01;1017.6;;;21.5;63.1
72226;BME280;60130;52.250;5.048;2022-08-21T18:40:00;1017.6;;;21.4;62.9
72226;BME280;60130;52.250;5.048;2022-08-21T18:45:01;1017.7;;;21.3;63.9
72226;BME280;60130;52.250;5.048;2022-08-21T18:50:00;1017.7;;;21.3;65.6
72226;BME280;60130;52.250;5.048;2022-08-21T18:55:00;1017.7;;;21.1;65.6
72226;BME280;60130;52.250;5.048;2022-08-21T19:00:00;1017.7;;;20.9;66.8
72226;BME280;60130;52.250;5.048;2022-08-21T19:05:00;1017.7;;;20.7;67.1
72226;BME280;60130;52.250;5.048;2022-08-21T19:10:00;1017.7;;;20.5;67.9
72226;BME280;60130;52.250;5.048;2022-08-21T19:15:01;1017.8;;;20.5;67.9
72226;BME280;60130;52.250;5.048;2022-08-21T19:20:03;1017.8;;;20.4;68.2
72226;BME280;60130;52.250;5.048;2022-08-21T19:25:00;1017.9;;;20.5;68.1
72226;BME280;60130;52.250;5.048;2022-08-21T19:30:00;1018.0;;;20.5;68.3
72226;BME280;60130;52.250;5.048;2022-08-21T19:35:00;1018.0;;;20.5;68.0
72226;BME280;60130;52.250;5.048;2022-08-21T19:40:00;1018.0;;;20.6;68.1
72226;BME280;60130;52.250;5.048;2022-08-21T19:45:00;1018.0;;;20.5;68.0
72226;BME280;60130;52.250;5.048;2022-08-21T19:50:03;1018.1;;;20.5;67.9
72226;BME280;60130;52.250;5.048;2022-08-21T19:55:00;1018.0;;;20.5;67.5
72226;BME280;60130;52.250;5.048;2022-08-21T20:00:00;1018.0;;;20.5;67.4
72226;BME280;60130;52.250;5.048;2022-08-21T20:05:00;1018.0;;;20.5;67.3
72226;BME280;60130;52.250;5.048;2022-08-21T20:10:00;1018.0;;;20.5;67.3
72226;BME280;60130;52.250;5.048;2022-08-21T20:15:00;1018.1;;;20.6;67.4
72226;BME280;60130;52.250;5.048;2022-08-21T20:20:00;1018.1;;;20.6;67.8
72226;BME280;60130;52.250;5.048;2022-08-21T20:25:00;1018.1;;;20.5;68.2
72226;BME280;60130;52.250;5.048;2022-08-21T20:30:00;1018.1;;;20.5;68.1
72226;BME280;60130;52.250;5.048;2022-08-21T20:35:00;1018.1;;;20.5;68.1
72226;BME280;60130;52.250;5.048;2022-08-21T20:40:00;1018.1;;;20.5;67.9
72226;BME280;60130;52.250;5.048;2022-08-21T20:45:00;1018.1;;;20.6;67.6
72226;BME280;60130;52.250;5.048;2022-08-21T20:50:04;1018.1;;;20.3;69.4
72226;BME280;60130;52.250;5.048;2022-08-21T20:55:05;1018.1;;;20.2;69.7
72226;BME280;60130;52.250;5.048;2022-08-21T21:00:05;1018.1;;;20.1;70.1
72226;BME280;60130;52.250;5.048;2022-08-21T21:05:03;1018.1;;;20.1;70.5
72226;BME280;60130;52.250;5.048;2022-08-21T21:10:02;1018.2;;;20.1;70.1
72226;BME280;60130;52.250;5.048;2022-08-21T21:15:08;1018.2;;;20.2;69.9
72226;BME280;60130;52.250;5.048;2022-08-21T21:20:07;1018.2;;;20.2;69.6
72226;BME280;60130;52.250;5.048;2022-08-21T21:25:05;1018.2;;;20.2;69.3
72226;BME280;60130;52.250;5.048;2022-08-21T21:30:04;1018.2;;;20.2;69.3
72226;BME280;60130;52.250;5.048;2022-08-21T21:35:02;1018.2;;;20.2;69.5
72226;BME280;60130;52.250;5.048;2022-08-21T21:40:26;1018.1;;;20.2;69.7
72226;BME280;60130;52.250;5.048;2022-08-21T21:45:09;1018.2;;;20.0;71.7
72226;BME280;60130;52.250;5.048;2022-08-21T21:50:17;1018.1;;;19.8;72.5
72226;BME280;60130;52.250;5.048;2022-08-21T21:55:15;1018.2;;;19.6;73.4
72226;BME280;60130;52.250;5.048;2022-08-21T22:00:07;1018.2;;;19.6;73.4
72226;BME280;60130;52.250;5.048;2022-08-21T22:05:05;1018.2;;;19.6;73.4
72226;BME280;60130;52.250;5.048;2022-08-21T22:10:05;1018.2;;;19.5;74.5
72226;BME280;60130;52.250;5.048;2022-08-21T22:15:00;1018.2;;;19.6;73.8
72226;BME280;60130;52.250;5.048;2022-08-21T22:20:04;1018.1;;;19.5;75.1
72226;BME280;60130;52.250;5.048;2022-08-21T22:25:05;1018.1;;;19.3;75.5
72226;BME280;60130;52.250;5.048;2022-08-21T22:30:05;1018.1;;;19.3;75.2
72226;BME280;60130;52.250;5.048;2022-08-21T22:35:05;1018.1;;;19.3;75.4
72226;BME280;60130;52.250;5.048;2022-08-21T22:40:00;1018.1;;;19.1;77.2
72226;BME280;60130;52.250;5.048;2022-08-21T22:45:04;1018.2;;;19.0;77.4
72226;BME280;60130;52.250;5.048;2022-08-21T22:50:03;1018.1;;;18.9;77.7
72226;BME280;60130;52.250;5.048;2022-08-21T22:55:14;1018.2;;;19.0;77.0
72226;BME280;60130;52.250;5.048;2022-08-21T23:00:05;1018.1;;;19.1;77.1
72226;BME280;60130;52.250;5.048;2022-08-21T23:05:14;1018.1;;;19.1;77.1
72226;BME280;60130;52.250;5.048;2022-08-21T23:10:00;1018.1;;;19.1;77.5
72226;BME280;60130;52.250;5.048;2022-08-21T23:15:05;1018.1;;;19.0;77.8
72226;BME280;60130;52.250;5.048;2022-08-21T23:20:06;1018.1;;;19.0;77.0
72226;BME280;60130;52.250;5.048;2022-08-21T23:25:07;1018.1;;;18.9;77.4
72226;BME280;60130;52.250;5.048;2022-08-21T23:30:05;1018.0;;;18.7;78.0
72226;BME280;60130;52.250;5.048;2022-08-21T23:35:06;1018.1;;;18.4;79.0
72226;BME280;60130;52.250;5.048;2022-08-21T23:40:07;1018.1;;;18.4;78.9
72226;BME280;60130;52.250;5.048;2022-08-21T23:45:07;1018.0;;;18.3;78.5
72226;BME280;60130;52.250;5.048;2022-08-21T23:50:04;1018.0;;;18.2;78.6
72226;BME280;60130;52.250;5.048;2022-08-21T23:55:09;1018.0;;;18.1;78.5
